Latest Weather Observations for Busselton Jetty

IDW60801

Issued at 10:33 pm WST Sunday 24 July 2016 (issued every 30 minutes, with the page automatically refreshed every 10 minutes)

About weather observations | Map of weather stations | Latest weather observations for WA | Other Formats
Station Details ID: 009937 Name: BUSSELTON JETTY Lat: -33.63 Lon: 115.34 Height: 3.0 m
Data from the previous 72 hours. | See also: Recent months at Busselton Jetty
Date/Time
WST
Temp
°C
App
Temp
°C
Dew
Point
°C
Rel
Hum
%
Delta-T
°C
Wind Press
QNH
hPa
Press
MSL
hPa
Rain since
9am
mm
Dir  Spd
km/h
Gust
km/h
Spd
kts
Gust
kts
24/10:30pm - - - - - CALM 0 0 0 0 - - -
24/10:00pm - - - - - CALM 0 0 0 0 - - -
24/09:30pm - - - - - S 7 11 4 6 - - -
24/09:00pm - - - - - S 13 17 7 9 - - -
24/08:30pm - - - - - SSW 11 15 6 8 - - -
24/08:00pm - - - - - WSW 7 7 4 4 - - -
24/07:30pm - - - - - CALM 0 0 0 0 - - -
24/07:00pm - - - - - SW 11 13 6 7 - - -
24/06:30pm - - - - - SSW 9 11 5 6 - - -
24/06:00pm - - - - - SSW 11 13 6 7 - - -
24/05:30pm - - - - - SSW 13 17 7 9 - - -
24/05:00pm - - - - - W 19 22 10 12 - - -
24/04:30pm - - - - - WNW 11 13 6 7 - - -
24/04:00pm - - - - - WSW 19 24 10 13 - - -
24/03:30pm - - - - - W 11 15 6 8 - - -
24/03:00pm - - - - - NW 11 13 6 7 - - -
24/02:30pm - - - - - NNW 11 13 6 7 - - -
24/02:00pm - - - - - NNW 13 15 7 8 - - -
24/01:30pm - - - - - NW 9 11 5 6 - - -
24/01:00pm - - - - - SSW 2 6 1 3 - - -
24/12:30pm - - - - - SW 11 17 6 9 - - -
24/12:00pm - - - - - CALM 0 0 0 0 - - -
24/11:30am - - - - - NNW 7 9 4 5 - - -
24/11:00am - - - - - NNE 7 9 4 5 - - -
24/10:30am - - - - - NNE 13 15 7 8 - - -
24/10:00am - - - - - NE 13 15 7 8 - - -
24/09:30am - - - - - ENE 13 15 7 8 - - -
24/09:00am - - - - - ENE 11 15 6 8 - - -
24/08:30am - - - - - WSW 7 9 4 5 - - -
24/08:00am - - - - - S 11 15 6 8 - - -
24/07:30am - - - - - ESE 7 9 4 5 - - -
24/07:00am - - - - - CALM 0 6 0 3 - - -
24/06:30am - - - - - ESE 7 9 4 5 - - -
24/06:00am - - - - - ESE 9 11 5 6 - - -
24/05:30am - - - - - ESE 9 11 5 6 - - -
24/05:00am - - - - - ESE 7 11 4 6 - - -
24/04:30am - - - - - E 9 11 5 6 - - -
24/04:00am - - - - - ENE 11 15 6 8 - - -
24/03:30am - - - - - SE 11 13 6 7 - - -
24/03:00am - - - - - SE 9 11 5 6 - - -
24/02:30am - - - - - ESE 9 13 5 7 - - -
24/02:00am - - - - - SE 11 13 6 7 - - -
24/01:30am - - - - - SSE 9 13 5 7 - - -
24/01:00am - - - - - SSE 11 13 6 7 - - -
24/12:30am - - - - - S 15 19 8 10 - - -
24/12:00am - - - - - S 13 17 7 9 - - -
 
Date/Time
WST
Temp
°C
App
Temp
°C
Dew
Point
°C
Rel
Hum
%
Delta-T
°C
Wind Press
QNH
hPa
Press
MSL
hPa
Rain since
9am
mm
Dir  Spd
km/h
Gust
km/h
Spd
kts
Gust
kts
23/11:30pm - - - - - SE 7 7 4 4 - - -
23/11:00pm - - - - - E 9 11 5 6 - - -
23/10:30pm - - - - - S 9 13 5 7 - - -
23/10:00pm - - - - - S 7 11 4 6 - - -
23/09:30pm - - - - - SSE 13 15 7 8 - - -
23/09:00pm - - - - - S 9 11 5 6 - - -
23/08:30pm - - - - - S 9 13 5 7 - - -
23/08:00pm - - - - - S 17 22 9 12 - - -
23/07:30pm - - - - - S 11 13 6 7 - - -
23/07:00pm - - - - - S 13 17 7 9 - - -
23/06:30pm - - - - - SSE 15 17 8 9 - - -
23/06:00pm - - - - - SSE 15 20 8 11 - - -
23/05:30pm - - - - - SSW 19 22 10 12 - - -
23/05:00pm - - - - - S 24 30 13 16 - - -
23/04:30pm - - - - - S 32 39 17 21 - - -
23/04:00pm - - - - - S 24 30 13 16 - - -
23/03:30pm - - - - - SSW 24 30 13 16 - - -
23/03:00pm - - - - - S 35 44 19 24 - - -
23/02:30pm - - - - - S 32 37 17 20 - - -
23/02:00pm - - - - - SSW 30 41 16 22 - - -
23/01:30pm - - - - - SSW 35 43 19 23 - - -
23/01:00pm - - - - - SSW 39 48 21 26 - - -
23/12:30pm - - - - - SSW 35 44 19 24 - - -
23/12:00pm - - - - - SSW 35 48 19 26 - - -
23/11:30am - - - - - SSW 39 54 21 29 - - -
23/11:07am - - - - - SSW 28 46 15 25 - - -
23/11:00am - - - - - SSW 26 32 14 17 - - -
23/10:30am - - - - - SSW 24 35 13 19 - - -
23/10:00am - - - - - SW 32 37 17 20 - - -
23/09:42am - - - - - WSW 19 39 10 21 - - -
23/09:30am - - - - - N 4 7 2 4 - - -
23/09:00am - - - - - SSW 2 7 1 4 - - -
23/08:30am - - - - - SW 15 17 8 9 - - -
23/08:00am - - - - - CALM 0 7 0 4 - - -
23/07:30am - - - - - SSW 2 7 1 4 - - -
23/07:00am - - - - - S 11 13 6 7 - - -
23/06:30am - - - - - SW 15 17 8 9 - - -
23/06:00am - - - - - S 15 19 8 10 - - -
23/05:30am - - - - - CALM 0 0 0 0 - - -
23/05:00am - - - - - S 6 9 3 5 - - -
23/04:30am - - - - - W 7 11 4 6 - - -
23/04:00am - - - - - WSW 11 15 6 8 - - -
23/03:30am - - - - - N 4 7 2 4 - - -
23/03:00am - - - - - N 7 9 4 5 - - -
23/02:30am - - - - - CALM 0 0 0 0 - - -
23/02:00am - - - - - SSW 11 13 6 7 - - -
23/01:30am - - - - - ENE 6 7 3 4 - - -
23/01:00am - - - - - SE 9 11 5 6 - - -
23/12:30am - - - - - S 11 15 6 8 - - -
23/12:00am - - - - - SE 9 11 5 6 - - -
 
Date/Time
WST
Temp
°C
App
Temp
°C
Dew
Point
°C
Rel
Hum
%
Delta-T
°C
Wind Press
QNH
hPa
Press
MSL
hPa
Rain since
9am
mm
Dir  Spd
km/h
Gust
km/h
Spd
kts
Gust
kts
22/11:30pm - - - - - SSE 9 13 5 7 - - -
22/11:00pm - - - - - N 6 13 3 7 - - -
22/10:30pm - - - - - E 9 11 5 6 - - -
22/10:00pm - - - - - ENE 9 11 5 6 - - -
22/09:30pm - - - - - ENE 9 11 5 6 - - -
22/09:00pm - - - - - ENE 9 11 5 6 - - -
22/08:30pm - - - - - ENE 11 13 6 7 - - -
22/08:00pm - - - - - E 13 15 7 8 - - -
22/07:30pm - - - - - E 7 9 4 5 - - -
22/07:00pm - - - - - S 9 11 5 6 - - -
22/06:30pm - - - - - SSW 9 9 5 5 - - -
22/06:00pm - - - - - SSE 4 9 2 5 - - -
22/05:30pm - - - - - S 13 15 7 8 - - -
22/05:00pm - - - - - SSW 15 19 8 10 - - -
22/04:30pm - - - - - SSW 19 22 10 12 - - -
22/04:00pm - - - - - SSW 17 20 9 11 - - -
22/03:30pm - - - - - S 19 24 10 13 - - -
22/03:00pm - - - - - S 15 19 8 10 - - -
22/02:30pm - - - - - SW 19 22 10 12 - - -
22/02:00pm - - - - - WNW 13 17 7 9 - - -
22/01:30pm - - - - - NW 13 15 7 8 - - -
22/01:00pm - - - - - NW 9 11 5 6 - - -
22/12:30pm - - - - - N 7 9 4 5 - - -
22/12:00pm - - - - - NNW 15 17 8 9 - - -
22/11:30am - - - - - N 9 13 5 7 - - -
22/11:00am - - - - - NE 7 9 4 5 - - -
22/10:30am - - - - - NE 7 9 4 5 - - -
22/10:00am - - - - - NNE 9 11 5 6 - - -
22/09:30am - - - - - SE 6 9 3 5 - - -
22/09:00am - - - - - W 9 9 5 5 - - -
22/08:30am - - - - - SSE 6 7 3 4 - - -
22/08:00am - - - - - SE 11 13 6 7 - - -
22/07:30am - - - - - SSE 9 15 5 8 - - -
22/07:00am - - - - - SSE 13 15 7 8 - - -
22/06:30am - - - - - SSE 17 26 9 14 - - -
22/06:00am - - - - - S 15 17 8 9 - - -
22/05:30am - - - - - SSW 13 15 7 8 - - -
22/05:00am - - - - - SSW 13 17 7 9 - - -
22/04:30am - - - - - SW 17 20 9 11 - - -
22/04:00am - - - - - SSW 13 17 7 9 - - -
22/03:30am - - - - - S 15 17 8 9 - - -
22/03:00am - - - - - SSW 17 19 9 10 - - -
22/02:30am - - - - - SSW 19 22 10 12 - - -
22/02:00am - - - - - SSW 15 19 8 10 - - -
22/01:30am - - - - - SSW 19 24 10 13 - - -
22/01:00am - - - - - SSW 30 37 16 20 - - -
22/12:30am - - - - - SSW 22 30 12 16 - - -
22/12:00am - - - - - SSW 28 35 15 19 - - -
 
Date/Time
WST
Temp
°C
App
Temp
°C
Dew
Point
°C
Rel
Hum
%
Delta-T
°C
Wind Press
QNH
hPa
Press
MSL
hPa
Rain since
9am
mm
Dir  Spd
km/h
Gust
km/h
Spd
kts
Gust
kts
21/11:50pm - - - - - SSW 28 41 15 22 - - -
21/11:30pm - - - - - SW 17 20 9 11 - - -
21/11:00pm - - - - - SW 28 35 15 19 - - -

Other Formats:

Comma delimited format used in spreadsheet applications
http://www.bom.gov.au/fwo/IDW60801/IDW60801.95602.axf

JavaScript Object Notation format (JSON) in row-major order
http://www.bom.gov.au/fwo/IDW60801/IDW60801.95602.json